sensor_id;sensor_type;location;lat;lon;timestamp;P1;durP1;ratioP1;P2;durP2;ratioP2
12908;SDS011;6522;49.622;6.126;2022-08-11T00:01:07;20.55;;;19.45;;
12908;SDS011;6522;49.622;6.126;2022-08-11T00:03:57;23.83;;;22.70;;
12908;SDS011;6522;49.622;6.126;2022-08-11T00:06:42;20.50;;;19.30;;
12908;SDS011;6522;49.622;6.126;2022-08-11T00:09:33;20.57;;;19.47;;
12908;SDS011;6522;49.622;6.126;2022-08-11T00:12:19;20.90;;;19.70;;
12908;SDS011;6522;49.622;6.126;2022-08-11T00:15:06;23.47;;;22.27;;
12908;SDS011;6522;49.622;6.126;2022-08-11T00:17:57;20.50;;;19.40;;
12908;SDS011;6522;49.622;6.126;2022-08-11T00:20:43;23.00;;;21.80;;
12908;SDS011;6522;49.622;6.126;2022-08-11T00:23:31;19.60;;;18.50;;
12908;SDS011;6522;49.622;6.126;2022-08-11T00:26:17;23.97;;;22.77;;
12908;SDS011;6522;49.622;6.126;2022-08-11T00:29:08;20.58;;;19.37;;
12908;SDS011;6522;49.622;6.126;2022-08-11T00:31:55;24.00;;;22.80;;
12908;SDS011;6522;49.622;6.126;2022-08-11T00:34:41;20.10;;;19.10;;
12908;SDS011;6522;49.622;6.126;2022-08-11T00:37:28;21.10;;;19.90;;
12908;SDS011;6522;49.622;6.126;2022-08-11T00:40:22;23.80;;;22.70;;
12908;SDS011;6522;49.622;6.126;2022-08-11T00:46:15;21.07;;;19.90;;
12908;SDS011;6522;49.622;6.126;2022-08-11T00:52:07;20.37;;;19.17;;
12908;SDS011;6522;49.622;6.126;2022-08-11T01:00:25;20.80;;;19.60;;
12908;SDS011;6522;49.622;6.126;2022-08-11T01:03:34;19.65;;;18.65;;
12908;SDS011;6522;49.622;6.126;2022-08-11T01:09:22;19.60;;;18.50;;
12908;SDS011;6522;49.622;6.126;2022-08-11T01:15:30;18.63;;;17.70;;
12908;SDS011;6522;49.622;6.126;2022-08-11T01:27:05;23.27;;;21.90;;
12908;SDS011;6522;49.622;6.126;2022-08-11T01:38:57;20.20;;;18.90;;
12908;SDS011;6522;49.622;6.126;2022-08-11T01:45:01;22.10;;;20.90;;
12908;SDS011;6522;49.622;6.126;2022-08-11T01:47:44;19.70;;;18.60;;
12908;SDS011;6522;49.622;6.126;2022-08-11T01:53:35;21.90;;;20.60;;
12908;SDS011;6522;49.622;6.126;2022-08-11T01:59:28;19.50;;;18.40;;
12908;SDS011;6522;49.622;6.126;2022-08-11T02:05:39;18.67;;;17.58;;
12908;SDS011;6522;49.622;6.126;2022-08-11T02:08:39;19.37;;;18.30;;
12908;SDS011;6522;49.622;6.126;2022-08-11T02:11:27;18.77;;;17.80;;
12908;SDS011;6522;49.622;6.126;2022-08-11T02:14:30;21.53;;;20.43;;
12908;SDS011;6522;49.622;6.126;2022-08-11T02:20:13;20.43;;;19.33;;
12908;SDS011;6522;49.622;6.126;2022-08-11T02:23:24;22.93;;;21.73;;
12908;SDS011;6522;49.622;6.126;2022-08-11T02:26:13;19.60;;;18.60;;
12908;SDS011;6522;49.622;6.126;2022-08-11T02:32:14;22.07;;;20.80;;
12908;SDS011;6522;49.622;6.126;2022-08-11T02:35:27;19.80;;;18.60;;
12908;SDS011;6522;49.622;6.126;2022-08-11T02:38:16;18.80;;;17.80;;
12908;SDS011;6522;49.622;6.126;2022-08-11T02:41:02;22.43;;;21.33;;
12908;SDS011;6522;49.622;6.126;2022-08-11T02:43:49;17.83;;;16.70;;
12908;SDS011;6522;49.622;6.126;2022-08-11T02:46:47;25.90;;;24.40;;
12908;SDS011;6522;49.622;6.126;2022-08-11T02:52:42;17.58;;;16.58;;
12908;SDS011;6522;49.622;6.126;2022-08-11T02:58:25;21.40;;;20.07;;
12908;SDS011;6522;49.622;6.126;2022-08-11T03:01:13;18.15;;;16.87;;
12908;SDS011;6522;49.622;6.126;2022-08-11T03:04:17;17.95;;;16.95;;
12908;SDS011;6522;49.622;6.126;2022-08-11T03:07:05;17.33;;;16.35;;
12908;SDS011;6522;49.622;6.126;2022-08-11T03:09:59;21.67;;;20.13;;
12908;SDS011;6522;49.622;6.126;2022-08-11T03:12:44;18.77;;;17.75;;
12908;SDS011;6522;49.622;6.126;2022-08-11T03:15:51;18.50;;;17.10;;
12908;SDS011;6522;49.622;6.126;2022-08-11T03:18:56;18.50;;;17.48;;
12908;SDS011;6522;49.622;6.126;2022-08-11T03:27:56;18.08;;;16.87;;
12908;SDS011;6522;49.622;6.126;2022-08-11T03:30:41;18.80;;;17.83;;
12908;SDS011;6522;49.622;6.126;2022-08-11T03:33:29;17.62;;;16.55;;
12908;SDS011;6522;49.622;6.126;2022-08-11T03:36:51;21.03;;;19.93;;
12908;SDS011;6522;49.622;6.126;2022-08-11T03:39:41;18.00;;;16.80;;
12908;SDS011;6522;49.622;6.126;2022-08-11T03:42:45;18.27;;;17.08;;
12908;SDS011;6522;49.622;6.126;2022-08-11T03:45:29;20.70;;;19.43;;
12908;SDS011;6522;49.622;6.126;2022-08-11T03:48:24;18.70;;;17.37;;
12908;SDS011;6522;49.622;6.126;2022-08-11T03:54:20;17.90;;;16.80;;
12908;SDS011;6522;49.622;6.126;2022-08-11T03:57:22;21.03;;;19.93;;
12908;SDS011;6522;49.622;6.126;2022-08-11T04:09:18;18.80;;;17.80;;
12908;SDS011;6522;49.622;6.126;2022-08-11T04:15:03;20.93;;;19.83;;
12908;SDS011;6522;49.622;6.126;2022-08-11T04:26:56;18.50;;;17.50;;
12908;SDS011;6522;49.622;6.126;2022-08-11T04:29:45;18.73;;;17.62;;
12908;SDS011;6522;49.622;6.126;2022-08-11T04:50:14;21.77;;;20.67;;
12908;SDS011;6522;49.622;6.126;2022-08-11T04:56:24;19.10;;;18.00;;
12908;SDS011;6522;49.622;6.126;2022-08-11T04:59:42;21.97;;;20.60;;
12908;SDS011;6522;49.622;6.126;2022-08-11T05:03:00;18.62;;;17.52;;
12908;SDS011;6522;49.622;6.126;2022-08-11T05:06:00;21.27;;;19.80;;
12908;SDS011;6522;49.622;6.126;2022-08-11T05:08:52;21.23;;;20.00;;
12908;SDS011;6522;49.622;6.126;2022-08-11T05:14:32;20.58;;;19.37;;
12908;SDS011;6522;49.622;6.126;2022-08-11T05:20:44;18.60;;;17.60;;
12908;SDS011;6522;49.622;6.126;2022-08-11T05:23:48;21.60;;;20.00;;
12908;SDS011;6522;49.622;6.126;2022-08-11T05:26:52;21.27;;;20.07;;
12908;SDS011;6522;49.622;6.126;2022-08-11T05:30:02;19.20;;;18.00;;
12908;SDS011;6522;49.622;6.126;2022-08-11T05:33:09;19.37;;;18.27;;
12908;SDS011;6522;49.622;6.126;2022-08-11T05:36:15;21.07;;;20.07;;
12908;SDS011;6522;49.622;6.126;2022-08-11T05:39:00;19.23;;;18.00;;
12908;SDS011;6522;49.622;6.126;2022-08-11T05:42:04;19.15;;;17.95;;
12908;SDS011;6522;49.622;6.126;2022-08-11T05:45:13;21.43;;;20.13;;
12908;SDS011;6522;49.622;6.126;2022-08-11T05:48:18;18.40;;;17.33;;
12908;SDS011;6522;49.622;6.126;2022-08-11T05:51:23;19.05;;;17.85;;
12908;SDS011;6522;49.622;6.126;2022-08-11T05:54:28;20.20;;;19.17;;
12908;SDS011;6522;49.622;6.126;2022-08-11T05:57:34;19.00;;;17.90;;
12908;SDS011;6522;49.622;6.126;2022-08-11T06:00:20;19.20;;;18.00;;
12908;SDS011;6522;49.622;6.126;2022-08-11T06:03:07;19.23;;;18.12;;
12908;SDS011;6522;49.622;6.126;2022-08-11T06:05:55;22.20;;;20.97;;
12908;SDS011;6522;49.622;6.126;2022-08-11T06:08:41;19.65;;;18.45;;
12908;SDS011;6522;49.622;6.126;2022-08-11T06:11:28;20.17;;;18.87;;
12908;SDS011;6522;49.622;6.126;2022-08-11T06:14:15;21.90;;;20.70;;
12908;SDS011;6522;49.622;6.126;2022-08-11T06:17:02;19.30;;;18.02;;
12908;SDS011;6522;49.622;6.126;2022-08-11T06:19:48;18.98;;;17.87;;
12908;SDS011;6522;49.622;6.126;2022-08-11T06:22:35;19.75;;;18.60;;
12908;SDS011;6522;49.622;6.126;2022-08-11T06:25:22;19.62;;;18.50;;
12908;SDS011;6522;49.622;6.126;2022-08-11T06:28:09;21.60;;;20.33;;
12908;SDS011;6522;49.622;6.126;2022-08-11T06:30:56;18.90;;;17.80;;
12908;SDS011;6522;49.622;6.126;2022-08-11T06:39:47;19.15;;;18.05;;
12908;SDS011;6522;49.622;6.126;2022-08-11T06:45:23;21.57;;;20.47;;
12908;SDS011;6522;49.622;6.126;2022-08-11T06:48:13;19.40;;;18.10;;
12908;SDS011;6522;49.622;6.126;2022-08-11T06:51:03;19.43;;;18.20;;
12908;SDS011;6522;49.622;6.126;2022-08-11T06:53:59;19.60;;;18.50;;
12908;SDS011;6522;49.622;6.126;2022-08-11T06:56:46;20.10;;;18.90;;
12908;SDS011;6522;49.622;6.126;2022-08-11T06:59:51;21.53;;;20.43;;
12908;SDS011;6522;49.622;6.126;2022-08-11T07:03:06;19.45;;;18.35;;
12908;SDS011;6522;49.622;6.126;2022-08-11T07:06:04;21.77;;;20.30;;
12908;SDS011;6522;49.622;6.126;2022-08-11T07:09:09;21.90;;;20.73;;
12908;SDS011;6522;49.622;6.126;2022-08-11T07:12:18;20.00;;;18.90;;
12908;SDS011;6522;49.622;6.126;2022-08-11T07:15:18;21.83;;;20.57;;
12908;SDS011;6522;49.622;6.126;2022-08-11T07:18:27;21.73;;;20.63;;
12908;SDS011;6522;49.622;6.126;2022-08-11T07:21:33;21.83;;;20.53;;
12908;SDS011;6522;49.622;6.126;2022-08-11T07:24:38;22.83;;;21.53;;
12908;SDS011;6522;49.622;6.126;2022-08-11T07:27:42;23.53;;;21.97;;
12908;SDS011;6522;49.622;6.126;2022-08-11T07:30:47;22.00;;;20.77;;
12908;SDS011;6522;49.622;6.126;2022-08-11T07:33:39;22.47;;;21.37;;
12908;SDS011;6522;49.622;6.126;2022-08-11T07:36:24;21.50;;;20.40;;
12908;SDS011;6522;49.622;6.126;2022-08-11T07:39:14;21.63;;;20.53;;
12908;SDS011;6522;49.622;6.126;2022-08-11T07:41:57;21.80;;;20.60;;
12908;SDS011;6522;49.622;6.126;2022-08-11T07:44:44;22.00;;;20.80;;
12908;SDS011;6522;49.622;6.126;2022-08-11T07:47:50;22.50;;;21.20;;
12908;SDS011;6522;49.622;6.126;2022-08-11T07:50:55;22.13;;;21.03;;
12908;SDS011;6522;49.622;6.126;2022-08-11T07:54:00;22.67;;;21.37;;
12908;SDS011;6522;49.622;6.126;2022-08-11T07:56:47;21.10;;;20.00;;
12908;SDS011;6522;49.622;6.126;2022-08-11T07:59:34;22.70;;;21.13;;
12908;SDS011;6522;49.622;6.126;2022-08-11T08:02:39;22.17;;;21.03;;
12908;SDS011;6522;49.622;6.126;2022-08-11T08:05:46;20.17;;;18.80;;
12908;SDS011;6522;49.622;6.126;2022-08-11T08:08:50;21.77;;;20.60;;
12908;SDS011;6522;49.622;6.126;2022-08-11T08:11:56;21.00;;;19.90;;
12908;SDS011;6522;49.622;6.126;2022-08-11T08:15:04;22.27;;;20.97;;
12908;SDS011;6522;49.622;6.126;2022-08-11T08:18:06;21.90;;;20.70;;
12908;SDS011;6522;49.622;6.126;2022-08-11T08:20:54;19.60;;;18.40;;
12908;SDS011;6522;49.622;6.126;2022-08-11T08:23:46;21.80;;;20.70;;
12908;SDS011;6522;49.622;6.126;2022-08-11T08:26:32;22.10;;;21.00;;
12908;SDS011;6522;49.622;6.126;2022-08-11T08:29:38;21.30;;;20.30;;
12908;SDS011;6522;49.622;6.126;2022-08-11T08:32:43;22.37;;;21.20;;
12908;SDS011;6522;49.622;6.126;2022-08-11T08:35:30;22.20;;;20.87;;
12908;SDS011;6522;49.622;6.126;2022-08-11T08:38:17;20.50;;;19.40;;
12908;SDS011;6522;49.622;6.126;2022-08-11T08:41:03;20.67;;;19.47;;
12908;SDS011;6522;49.622;6.126;2022-08-11T08:43:51;20.07;;;19.07;;
12908;SDS011;6522;49.622;6.126;2022-08-11T08:46:41;21.87;;;20.67;;
12908;SDS011;6522;49.622;6.126;2022-08-11T08:49:32;21.80;;;20.70;;
12908;SDS011;6522;49.622;6.126;2022-08-11T08:52:15;22.00;;;20.70;;
12908;SDS011;6522;49.622;6.126;2022-08-11T08:55:02;21.97;;;20.83;;
12908;SDS011;6522;49.622;6.126;2022-08-11T08:57:48;19.20;;;18.20;;
12908;SDS011;6522;49.622;6.126;2022-08-11T09:00:38;22.20;;;20.67;;
12908;SDS011;6522;49.622;6.126;2022-08-11T09:03:24;22.10;;;21.00;;
12908;SDS011;6522;49.622;6.126;2022-08-11T09:06:11;21.70;;;20.60;;
12908;SDS011;6522;49.622;6.126;2022-08-11T09:08:57;22.00;;;20.80;;
12908;SDS011;6522;49.622;6.126;2022-08-11T09:11:44;21.83;;;20.63;;
12908;SDS011;6522;49.622;6.126;2022-08-11T09:14:37;21.20;;;20.00;;
12908;SDS011;6522;49.622;6.126;2022-08-11T09:20:29;21.00;;;19.90;;
12908;SDS011;6522;49.622;6.126;2022-08-11T09:23:16;18.67;;;17.58;;
12908;SDS011;6522;49.622;6.126;2022-08-11T09:26:21;20.33;;;19.40;;
12908;SDS011;6522;49.622;6.126;2022-08-11T09:29:27;20.40;;;19.40;;
12908;SDS011;6522;49.622;6.126;2022-08-11T09:32:14;20.40;;;19.30;;
12908;SDS011;6522;49.622;6.126;2022-08-11T09:35:01;19.47;;;18.57;;
12908;SDS011;6522;49.622;6.126;2022-08-11T09:37:48;20.30;;;19.00;;
12908;SDS011;6522;49.622;6.126;2022-08-11T09:40:53;20.13;;;19.17;;
12908;SDS011;6522;49.622;6.126;2022-08-11T09:43:44;20.43;;;19.20;;
12908;SDS011;6522;49.622;6.126;2022-08-11T09:46:49;20.27;;;19.20;;
12908;SDS011;6522;49.622;6.126;2022-08-11T09:49:36;20.20;;;19.20;;
12908;SDS011;6522;49.622;6.126;2022-08-11T09:52:22;20.40;;;19.40;;
12908;SDS011;6522;49.622;6.126;2022-08-11T09:55:09;21.10;;;19.00;;
12908;SDS011;6522;49.622;6.126;2022-08-11T09:57:58;17.70;;;16.60;;
12908;SDS011;6522;49.622;6.126;2022-08-11T10:01:00;19.40;;;18.50;;
12908;SDS011;6522;49.622;6.126;2022-08-11T10:03:47;19.40;;;18.40;;
12908;SDS011;6522;49.622;6.126;2022-08-11T10:06:33;15.93;;;14.95;;
12908;SDS011;6522;49.622;6.126;2022-08-11T10:09:23;15.70;;;14.80;;
12908;SDS011;6522;49.622;6.126;2022-08-11T10:12:11;17.87;;;17.07;;
12908;SDS011;6522;49.622;6.126;2022-08-11T10:15:01;18.97;;;18.07;;
12908;SDS011;6522;49.622;6.126;2022-08-11T10:18:06;18.83;;;17.80;;
12908;SDS011;6522;49.622;6.126;2022-08-11T10:21:14;17.12;;;16.02;;
12908;SDS011;6522;49.622;6.126;2022-08-11T10:24:00;17.43;;;16.43;;
12908;SDS011;6522;49.622;6.126;2022-08-11T10:27:05;17.10;;;16.20;;
12908;SDS011;6522;49.622;6.126;2022-08-11T10:29:51;19.10;;;17.70;;
12908;SDS011;6522;49.622;6.126;2022-08-11T10:32:57;18.63;;;17.63;;
12908;SDS011;6522;49.622;6.126;2022-08-11T10:36:02;16.73;;;15.83;;
12908;SDS011;6522;49.622;6.126;2022-08-11T10:38:49;16.73;;;15.83;;
12908;SDS011;6522;49.622;6.126;2022-08-11T10:41:36;17.53;;;16.63;;
12908;SDS011;6522;49.622;6.126;2022-08-11T10:44:46;18.93;;;18.03;;
12908;SDS011;6522;49.622;6.126;2022-08-11T10:47:28;17.63;;;16.77;;
12908;SDS011;6522;49.622;6.126;2022-08-11T10:50:20;18.43;;;17.43;;
12908;SDS011;6522;49.622;6.126;2022-08-11T10:53:26;17.80;;;16.90;;
12908;SDS011;6522;49.622;6.126;2022-08-11T10:56:32;16.70;;;15.80;;
12908;SDS011;6522;49.622;6.126;2022-08-11T10:59:37;17.87;;;16.97;;
12908;SDS011;6522;49.622;6.126;2022-08-11T11:02:23;18.20;;;17.30;;
12908;SDS011;6522;49.622;6.126;2022-08-11T11:05:27;18.23;;;17.30;;
12908;SDS011;6522;49.622;6.126;2022-08-11T11:08:13;17.93;;;17.13;;
12908;SDS011;6522;49.622;6.126;2022-08-11T11:10:56;18.93;;;17.73;;
12908;SDS011;6522;49.622;6.126;2022-08-11T11:13:43;18.50;;;17.07;;
12908;SDS011;6522;49.622;6.126;2022-08-11T11:16:48;18.60;;;17.40;;
12908;SDS011;6522;49.622;6.126;2022-08-11T11:19:55;17.33;;;16.53;;
12908;SDS011;6522;49.622;6.126;2022-08-11T11:22:40;19.10;;;18.10;;
12908;SDS011;6522;49.622;6.126;2022-08-11T11:25:34;16.60;;;15.70;;
12908;SDS011;6522;49.622;6.126;2022-08-11T11:31:11;17.97;;;17.00;;
12908;SDS011;6522;49.622;6.126;2022-08-11T11:36:50;17.90;;;17.00;;
12908;SDS011;6522;49.622;6.126;2022-08-11T11:39:36;17.90;;;16.80;;
12908;SDS011;6522;49.622;6.126;2022-08-11T11:42:22;17.67;;;16.63;;
12908;SDS011;6522;49.622;6.126;2022-08-11T11:45:10;17.80;;;16.90;;
12908;SDS011;6522;49.622;6.126;2022-08-11T11:47:57;17.83;;;16.83;;
12908;SDS011;6522;49.622;6.126;2022-08-11T11:50:43;17.47;;;16.67;;
12908;SDS011;6522;49.622;6.126;2022-08-11T11:53:30;17.50;;;16.53;;
12908;SDS011;6522;49.622;6.126;2022-08-11T11:56:17;17.83;;;16.90;;
12908;SDS011;6522;49.622;6.126;2022-08-11T11:59:03;17.77;;;16.87;;
12908;SDS011;6522;49.622;6.126;2022-08-11T12:02:09;18.43;;;17.43;;
12908;SDS011;6522;49.622;6.126;2022-08-11T12:04:55;18.60;;;17.70;;
12908;SDS011;6522;49.622;6.126;2022-08-11T12:07:42;17.90;;;16.90;;
12908;SDS011;6522;49.622;6.126;2022-08-11T12:10:51;18.67;;;16.83;;
12908;SDS011;6522;49.622;6.126;2022-08-11T12:13:38;17.70;;;16.80;;
12908;SDS011;6522;49.622;6.126;2022-08-11T12:16:27;18.10;;;17.00;;
12908;SDS011;6522;49.622;6.126;2022-08-11T12:19:16;15.50;;;14.60;;
12908;SDS011;6522;49.622;6.126;2022-08-11T12:22:00;18.27;;;17.27;;
12908;SDS011;6522;49.622;6.126;2022-08-11T12:25:06;17.80;;;16.90;;
12908;SDS011;6522;49.622;6.126;2022-08-11T12:28:11;18.00;;;17.00;;
12908;SDS011;6522;49.622;6.126;2022-08-11T12:30:58;17.77;;;16.93;;
12908;SDS011;6522;49.622;6.126;2022-08-11T12:33:45;17.63;;;16.63;;
12908;SDS011;6522;49.622;6.126;2022-08-11T12:36:32;18.87;;;17.87;;
12908;SDS011;6522;49.622;6.126;2022-08-11T12:39:21;18.70;;;17.60;;
12908;SDS011;6522;49.622;6.126;2022-08-11T12:42:12;15.60;;;14.80;;
12908;SDS011;6522;49.622;6.126;2022-08-11T12:45:16;17.87;;;16.97;;
12908;SDS011;6522;49.622;6.126;2022-08-11T12:48:16;17.33;;;16.53;;
12908;SDS011;6522;49.622;6.126;2022-08-11T12:51:21;16.77;;;15.97;;
12908;SDS011;6522;49.622;6.126;2022-08-11T12:54:33;17.30;;;16.30;;
12908;SDS011;6522;49.622;6.126;2022-08-11T12:57:22;15.50;;;14.50;;
12908;SDS011;6522;49.622;6.126;2022-08-11T13:00:25;17.10;;;16.20;;
12908;SDS011;6522;49.622;6.126;2022-08-11T13:03:30;17.00;;;15.77;;
12908;SDS011;6522;49.622;6.126;2022-08-11T13:06:35;16.50;;;15.70;;
12908;SDS011;6522;49.622;6.126;2022-08-11T13:09:21;17.13;;;16.27;;
12908;SDS011;6522;49.622;6.126;2022-08-11T13:12:08;16.53;;;15.73;;
12908;SDS011;6522;49.622;6.126;2022-08-11T13:15:18;17.40;;;16.50;;
12908;SDS011;6522;49.622;6.126;2022-08-11T13:18:00;16.90;;;16.10;;
12908;SDS011;6522;49.622;6.126;2022-08-11T13:20:53;16.83;;;15.93;;
12908;SDS011;6522;49.622;6.126;2022-08-11T13:23:40;17.57;;;16.67;;
12908;SDS011;6522;49.622;6.126;2022-08-11T13:26:26;18.10;;;16.87;;
12908;SDS011;6522;49.622;6.126;2022-08-11T13:29:13;16.97;;;16.17;;
12908;SDS011;6522;49.622;6.126;2022-08-11T13:32:00;18.50;;;17.60;;
12908;SDS011;6522;49.622;6.126;2022-08-11T13:34:47;18.10;;;17.20;;
12908;SDS011;6522;49.622;6.126;2022-08-11T13:37:33;18.37;;;17.47;;
12908;SDS011;6522;49.622;6.126;2022-08-11T13:40:20;19.20;;;17.47;;
12908;SDS011;6522;49.622;6.126;2022-08-11T13:43:07;18.20;;;17.30;;
12908;SDS011;6522;49.622;6.126;2022-08-11T13:45:54;18.47;;;17.57;;
12908;SDS011;6522;49.622;6.126;2022-08-11T13:48:41;16.27;;;15.27;;
12908;SDS011;6522;49.622;6.126;2022-08-11T13:51:28;17.27;;;16.37;;
12908;SDS011;6522;49.622;6.126;2022-08-11T13:54:22;20.07;;;18.40;;
12908;SDS011;6522;49.622;6.126;2022-08-11T13:57:08;17.00;;;16.00;;
12908;SDS011;6522;49.622;6.126;2022-08-11T13:59:54;19.80;;;18.70;;
12908;SDS011;6522;49.622;6.126;2022-08-11T14:02:42;19.47;;;18.37;;
12908;SDS011;6522;49.622;6.126;2022-08-11T14:05:28;19.10;;;18.20;;
12908;SDS011;6522;49.622;6.126;2022-08-11T14:08:15;18.50;;;17.60;;
12908;SDS011;6522;49.622;6.126;2022-08-11T14:11:01;18.43;;;17.53;;
12908;SDS011;6522;49.622;6.126;2022-08-11T14:14:06;19.07;;;17.97;;
12908;SDS011;6522;49.622;6.126;2022-08-11T14:16:53;19.97;;;18.53;;
12908;SDS011;6522;49.622;6.126;2022-08-11T14:19:40;19.50;;;18.33;;
12908;SDS011;6522;49.622;6.126;2022-08-11T14:22:27;19.10;;;18.20;;
12908;SDS011;6522;49.622;6.126;2022-08-11T14:25:13;18.83;;;17.90;;
12908;SDS011;6522;49.622;6.126;2022-08-11T14:28:00;17.30;;;16.20;;
12908;SDS011;6522;49.622;6.126;2022-08-11T14:30:47;19.03;;;18.13;;
12908;SDS011;6522;49.622;6.126;2022-08-11T14:33:43;19.43;;;18.43;;
12908;SDS011;6522;49.622;6.126;2022-08-11T14:36:30;17.10;;;16.10;;
12908;SDS011;6522;49.622;6.126;2022-08-11T14:39:16;17.30;;;16.30;;
12908;SDS011;6522;49.622;6.126;2022-08-11T14:42:06;16.60;;;15.60;;
12908;SDS011;6522;49.622;6.126;2022-08-11T14:45:09;19.03;;;17.93;;
12908;SDS011;6522;49.622;6.126;2022-08-11T14:48:13;18.87;;;17.97;;
12908;SDS011;6522;49.622;6.126;2022-08-11T14:51:00;19.37;;;18.33;;
12908;SDS011;6522;49.622;6.126;2022-08-11T14:53:47;19.10;;;18.00;;
12908;SDS011;6522;49.622;6.126;2022-08-11T14:56:34;19.83;;;18.53;;
12908;SDS011;6522;49.622;6.126;2022-08-11T14:59:23;19.47;;;18.47;;
12908;SDS011;6522;49.622;6.126;2022-08-11T15:02:10;19.57;;;18.23;;
12908;SDS011;6522;49.622;6.126;2022-08-11T15:05:15;20.33;;;19.20;;
12908;SDS011;6522;49.622;6.126;2022-08-11T15:08:02;19.43;;;18.40;;
12908;SDS011;6522;49.622;6.126;2022-08-11T15:10:48;20.07;;;18.97;;
12908;SDS011;6522;49.622;6.126;2022-08-11T15:13:35;20.53;;;19.40;;
12908;SDS011;6522;49.622;6.126;2022-08-11T15:16:22;20.30;;;19.30;;
12908;SDS011;6522;49.622;6.126;2022-08-11T15:19:28;20.40;;;19.40;;
12908;SDS011;6522;49.622;6.126;2022-08-11T15:22:14;20.53;;;19.30;;
12908;SDS011;6522;49.622;6.126;2022-08-11T15:25:19;21.30;;;20.20;;
12908;SDS011;6522;49.622;6.126;2022-08-11T15:28:06;20.63;;;19.63;;
12908;SDS011;6522;49.622;6.126;2022-08-11T15:31:12;20.40;;;19.50;;
12908;SDS011;6522;49.622;6.126;2022-08-11T15:34:00;20.50;;;19.30;;
12908;SDS011;6522;49.622;6.126;2022-08-11T15:37:07;20.60;;;19.60;;
12908;SDS011;6522;49.622;6.126;2022-08-11T15:40:22;21.00;;;19.80;;
12908;SDS011;6522;49.622;6.126;2022-08-11T15:43:25;21.27;;;20.00;;
12908;SDS011;6522;49.622;6.126;2022-08-11T15:46:49;21.00;;;20.00;;
12908;SDS011;6522;49.622;6.126;2022-08-11T15:49:27;21.57;;;20.43;;
12908;SDS011;6522;49.622;6.126;2022-08-11T15:52:10;21.37;;;20.30;;
12908;SDS011;6522;49.622;6.126;2022-08-11T15:54:56;21.17;;;20.07;;
12908;SDS011;6522;49.622;6.126;2022-08-11T15:57:43;20.83;;;19.83;;
12908;SDS011;6522;49.622;6.126;2022-08-11T16:00:48;21.57;;;20.33;;
12908;SDS011;6522;49.622;6.126;2022-08-11T16:03:56;22.10;;;20.80;;
12908;SDS011;6522;49.622;6.126;2022-08-11T16:07:12;22.17;;;20.67;;
12908;SDS011;6522;49.622;6.126;2022-08-11T16:10:01;21.87;;;20.87;;
12908;SDS011;6522;49.622;6.126;2022-08-11T16:12:56;21.90;;;20.60;;
12908;SDS011;6522;49.622;6.126;2022-08-11T16:15:47;23.00;;;21.20;;
12908;SDS011;6522;49.622;6.126;2022-08-11T16:18:55;21.63;;;20.33;;
12908;SDS011;6522;49.622;6.126;2022-08-11T16:21:44;22.80;;;21.70;;
12908;SDS011;6522;49.622;6.126;2022-08-11T16:24:30;22.40;;;21.20;;
12908;SDS011;6522;49.622;6.126;2022-08-11T16:27:17;22.50;;;21.30;;
12908;SDS011;6522;49.622;6.126;2022-08-11T16:30:04;22.30;;;21.20;;
12908;SDS011;6522;49.622;6.126;2022-08-11T16:32:53;22.67;;;21.57;;
12908;SDS011;6522;49.622;6.126;2022-08-11T16:35:40;22.30;;;21.20;;
12908;SDS011;6522;49.622;6.126;2022-08-11T16:38:45;22.60;;;21.50;;
12908;SDS011;6522;49.622;6.126;2022-08-11T16:41:32;22.83;;;21.73;;
12908;SDS011;6522;49.622;6.126;2022-08-11T16:44:37;23.20;;;21.97;;
12908;SDS011;6522;49.622;6.126;2022-08-11T16:47:42;23.13;;;21.70;;
12908;SDS011;6522;49.622;6.126;2022-08-11T16:50:29;22.83;;;21.70;;
12908;SDS011;6522;49.622;6.126;2022-08-11T16:53:15;21.83;;;20.83;;
12908;SDS011;6522;49.622;6.126;2022-08-11T16:56:02;22.37;;;21.27;;
12908;SDS011;6522;49.622;6.126;2022-08-11T16:58:49;22.20;;;21.07;;
12908;SDS011;6522;49.622;6.126;2022-08-11T17:02:01;22.50;;;21.40;;
12908;SDS011;6522;49.622;6.126;2022-08-11T17:04:51;22.63;;;21.50;;
12908;SDS011;6522;49.622;6.126;2022-08-11T17:07:57;22.70;;;21.50;;
12908;SDS011;6522;49.622;6.126;2022-08-11T17:11:01;24.30;;;22.80;;
12908;SDS011;6522;49.622;6.126;2022-08-11T17:14:10;23.33;;;22.23;;
12908;SDS011;6522;49.622;6.126;2022-08-11T17:16:53;21.27;;;20.17;;
12908;SDS011;6522;49.622;6.126;2022-08-11T17:19:41;24.33;;;22.93;;
12908;SDS011;6522;49.622;6.126;2022-08-11T17:22:27;23.83;;;22.73;;
12908;SDS011;6522;49.622;6.126;2022-08-11T17:25:32;24.07;;;22.87;;
12908;SDS011;6522;49.622;6.126;2022-08-11T17:28:19;24.70;;;23.40;;
12908;SDS011;6522;49.622;6.126;2022-08-11T17:31:07;24.90;;;23.50;;
12908;SDS011;6522;49.622;6.126;2022-08-11T17:34:12;24.43;;;23.03;;
12908;SDS011;6522;49.622;6.126;2022-08-11T17:37:17;24.47;;;23.27;;
12908;SDS011;6522;49.622;6.126;2022-08-11T17:40:06;24.13;;;22.93;;
12908;SDS011;6522;49.622;6.126;2022-08-11T17:42:51;20.85;;;19.65;;
12908;SDS011;6522;49.622;6.126;2022-08-11T17:45:56;24.30;;;22.90;;
12908;SDS011;6522;49.622;6.126;2022-08-11T17:49:02;23.90;;;22.33;;
12908;SDS011;6522;49.622;6.126;2022-08-11T17:51:48;23.90;;;22.70;;
12908;SDS011;6522;49.622;6.126;2022-08-11T17:54:54;23.20;;;22.10;;
12908;SDS011;6522;49.622;6.126;2022-08-11T17:57:59;23.83;;;22.40;;
12908;SDS011;6522;49.622;6.126;2022-08-11T18:01:04;25.03;;;23.30;;
12908;SDS011;6522;49.622;6.126;2022-08-11T18:03:51;23.37;;;22.27;;
12908;SDS011;6522;49.622;6.126;2022-08-11T18:06:39;23.70;;;22.30;;
12908;SDS011;6522;49.622;6.126;2022-08-11T18:09:25;20.60;;;19.45;;
12908;SDS011;6522;49.622;6.126;2022-08-11T18:12:30;23.63;;;21.93;;
12908;SDS011;6522;49.622;6.126;2022-08-11T18:15:40;22.87;;;21.77;;
12908;SDS011;6522;49.622;6.126;2022-08-11T18:18:44;20.55;;;19.02;;
12908;SDS011;6522;49.622;6.126;2022-08-11T18:21:50;22.47;;;21.13;;
12908;SDS011;6522;49.622;6.126;2022-08-11T18:25:05;23.50;;;22.00;;
12908;SDS011;6522;49.622;6.126;2022-08-11T18:28:07;22.53;;;21.37;;
12908;SDS011;6522;49.622;6.126;2022-08-11T18:31:13;22.20;;;21.20;;
12908;SDS011;6522;49.622;6.126;2022-08-11T18:34:19;22.00;;;20.93;;
12908;SDS011;6522;49.622;6.126;2022-08-11T18:37:24;22.10;;;21.00;;
12908;SDS011;6522;49.622;6.126;2022-08-11T18:40:28;22.27;;;21.27;;
12908;SDS011;6522;49.622;6.126;2022-08-11T18:43:34;23.10;;;21.90;;
12908;SDS011;6522;49.622;6.126;2022-08-11T18:46:40;23.57;;;22.40;;
12908;SDS011;6522;49.622;6.126;2022-08-11T18:49:45;22.97;;;21.87;;
12908;SDS011;6522;49.622;6.126;2022-08-11T18:52:50;23.60;;;22.30;;
12908;SDS011;6522;49.622;6.126;2022-08-11T18:55:55;22.93;;;21.83;;
12908;SDS011;6522;49.622;6.126;2022-08-11T18:59:01;23.57;;;22.27;;
12908;SDS011;6522;49.622;6.126;2022-08-11T19:02:06;23.07;;;21.93;;
12908;SDS011;6522;49.622;6.126;2022-08-11T19:05:11;24.57;;;23.20;;
12908;SDS011;6522;49.622;6.126;2022-08-11T19:08:17;24.20;;;22.87;;
12908;SDS011;6522;49.622;6.126;2022-08-11T19:11:23;23.47;;;22.37;;
12908;SDS011;6522;49.622;6.126;2022-08-11T19:14:28;24.40;;;23.10;;
12908;SDS011;6522;49.622;6.126;2022-08-11T19:17:34;23.80;;;22.10;;
12908;SDS011;6522;49.622;6.126;2022-08-11T19:20:38;23.20;;;22.00;;
12908;SDS011;6522;49.622;6.126;2022-08-11T19:23:44;20.90;;;19.70;;
12908;SDS011;6522;49.622;6.126;2022-08-11T19:26:49;23.03;;;21.90;;
12908;SDS011;6522;49.622;6.126;2022-08-11T19:29:55;24.27;;;22.87;;